Time;durP1;ratioP1;P1;durP2;ratioP2;P2;SDS_P1;SDS_P2;PMS_P1;PMS_P2;Temp;Humidity;BMP_temperature;BMP_pressure;BME280_temperature;BME280_humidity;BME280_pressure;Samples;Min_cycle;Max_cycle;Signal;HPM_P1;HPM_P2
2020/12/28 00:00:55;;;;;;;3.20;2.60;;;5.50;93.00;;;;;;2044788;28;20525;-82
2020/12/28 00:01:56;;;;;;;3.17;2.42;;;5.50;93.00;;;;;;2048407;29;20035;-82
2020/12/28 00:02:57;;;;;;;3.97;2.80;;;5.50;93.00;;;;;;2040619;29;20430;-82
2020/12/28 00:03:58;;;;;;;3.38;2.53;;;5.50;93.00;;;;;;2040620;29;20027;-82
2020/12/28 00:04:59;;;;;;;3.50;2.83;;;5.50;93.00;;;;;;2049465;28;20509;-83
2020/12/28 00:06:00;;;;;;;4.45;2.80;;;5.50;93.00;;;;;;2049091;28;20031;-82
2020/12/28 00:07:01;;;;;;;4.53;3.15;;;5.50;93.00;;;;;;2048390;28;20035;-82
2020/12/28 00:08:01;;;;;;;4.43;3.00;;;5.50;93.00;;;;;;2044643;29;20341;-82
2020/12/28 00:09:05;;;;;;;5.22;4.03;;;5.50;93.00;;;;;;2047825;28;20090;-82
2020/12/28 00:10:09;;;;;;;5.88;3.72;;;5.50;93.00;;;;;;2040942;28;20123;-82
2020/12/28 00:11:10;;;;;;;5.03;3.35;;;5.50;93.00;;;;;;2055647;28;20027;-82
2020/12/28 00:12:10;;;;;;;4.78;3.28;;;5.50;93.00;;;;;;2055753;28;20246;-82
2020/12/28 00:13:11;;;;;;;4.40;3.25;;;5.50;93.00;;;;;;2048195;28;20031;-82
2020/12/28 00:14:12;;;;;;;4.72;3.50;;;5.50;93.00;;;;;;2048492;28;20019;-82
2020/12/28 00:15:18;;;;;;;4.32;3.38;;;5.50;93.00;;;;;;2044861;28;20480;-82
2020/12/28 00:16:18;;;;;;;4.57;3.38;;;5.50;93.00;;;;;;2055857;28;20484;-82
2020/12/28 00:17:19;;;;;;;4.95;3.72;;;5.50;93.00;;;;;;2052555;28;20035;-83
2020/12/28 00:18:19;;;;;;;5.47;3.83;;;5.50;93.00;;;;;;2040015;29;20279;-83
2020/12/28 00:19:20;;;;;;;4.53;3.63;;;5.50;93.00;;;;;;2032344;29;20672;-82
2020/12/28 00:20:23;;;;;;;5.57;3.88;;;5.50;93.30;;;;;;2032186;29;20039;-82
2020/12/28 00:21:23;;;;;;;4.13;3.35;;;5.50;93.00;;;;;;2041009;28;20032;-82
2020/12/28 00:22:24;;;;;;;5.40;3.75;;;5.50;93.00;;;;;;2050784;28;20567;-83
2020/12/28 00:23:25;;;;;;;5.75;3.92;;;5.50;93.00;;;;;;2039452;29;20039;-82
2020/12/28 00:24:25;;;;;;;4.45;3.67;;;5.50;93.00;;;;;;2032584;29;20462;-82
2020/12/28 00:25:27;;;;;;;5.53;4.10;;;5.50;93.00;;;;;;2051573;28;20133;-82
2020/12/28 00:26:45;;;;;;;5.85;3.90;;;5.50;93.00;;;;;;2054671;28;20089;-82
2020/12/28 00:27:46;;;;;;;5.05;3.85;;;5.50;93.00;;;;;;2048778;28;20618;-82
2020/12/28 00:28:47;;;;;;;6.03;4.15;;;5.50;93.00;;;;;;2053694;28;20867;-82
2020/12/28 00:29:48;;;;;;;5.38;3.90;;;5.50;93.00;;;;;;2054260;28;20026;-82
2020/12/28 00:30:48;;;;;;;6.05;4.75;;;5.50;93.00;;;;;;2048265;28;20091;-82
2020/12/28 00:31:49;;;;;;;5.93;4.35;;;5.50;93.00;;;;;;2048295;29;20527;-82
2020/12/28 00:32:49;;;;;;;5.97;4.40;;;5.60;93.00;;;;;;2039791;29;20054;-82
2020/12/28 00:33:50;;;;;;;6.50;4.82;;;5.50;93.00;;;;;;2047890;28;20142;-82
2020/12/28 00:34:51;;;;;;;5.80;4.60;;;5.50;93.00;;;;;;2053590;28;20519;-81
2020/12/28 00:35:51;;;;;;;6.10;4.70;;;5.50;93.00;;;;;;2048389;29;20066;-82
2020/12/28 00:36:55;;;;;;;5.75;4.70;;;5.50;93.00;;;;;;2052939;28;20042;-82
2020/12/28 00:37:55;;;;;;;6.25;4.70;;;5.60;93.00;;;;;;2055484;28;20047;-82
2020/12/28 00:38:56;;;;;;;6.18;4.35;;;5.60;93.00;;;;;;2056188;28;20410;-82
2020/12/28 00:39:57;;;;;;;7.85;5.03;;;5.50;93.00;;;;;;2056250;28;20104;-82
2020/12/28 00:40:57;;;;;;;6.80;4.68;;;5.50;93.00;;;;;;2055935;28;20052;-82
2020/12/28 00:41:58;;;;;;;6.93;4.72;;;5.60;93.00;;;;;;2047820;29;20035;-82
2020/12/28 00:42:59;;;;;;;6.13;4.95;;;5.50;93.00;;;;;;2040362;29;20043;-82
2020/12/28 00:43:59;;;;;;;6.32;4.93;;;5.50;93.00;;;;;;2056162;28;20046;-81
2020/12/28 00:45:00;;;;;;;5.80;4.55;;;5.50;93.00;;;;;;2039354;29;20482;-82
2020/12/28 00:46:05;;;;;;;6.40;4.45;;;5.60;93.00;;;;;;2032368;28;20487;-81
2020/12/28 00:47:07;;;;;;;5.63;4.25;;;5.50;93.00;;;;;;2038984;29;20439;-81
2020/12/28 00:48:08;;;;;;;6.25;4.43;;;5.60;93.00;;;;;;2041051;29;20128;-82
2020/12/28 00:49:08;;;;;;;6.78;4.00;;;5.50;93.00;;;;;;2045268;29;20573;-82
2020/12/28 00:50:09;;;;;;;5.60;4.20;;;5.60;93.00;;;;;;2039885;29;20051;-82
2020/12/28 00:51:14;;;;;;;5.35;4.50;;;5.50;93.00;;;;;;2047574;29;20031;-82
2020/12/28 00:52:14;;;;;;;5.88;4.60;;;5.50;93.00;;;;;;2052039;28;20115;-81
2020/12/28 00:53:15;;;;;;;6.35;4.78;;;5.50;93.00;;;;;;2056438;28;20056;-82
2020/12/28 00:54:15;;;;;;;6.22;4.75;;;5.50;93.00;;;;;;2046796;28;20130;-81
2020/12/28 00:55:16;;;;;;;6.85;5.10;;;5.60;93.00;;;;;;2039219;29;20032;-82
2020/12/28 00:56:16;;;;;;;5.78;4.38;;;5.60;93.00;;;;;;2031901;29;20034;-81
2020/12/28 00:57:17;;;;;;;6.55;4.57;;;5.60;93.00;;;;;;2038781;29;20042;-81
2020/12/28 00:58:18;;;;;;;7.40;5.72;;;5.60;93.00;;;;;;2048169;29;20062;-81
2020/12/28 00:59:18;;;;;;;6.05;4.72;;;5.50;93.00;;;;;;2047583;28;20023;-81
2020/12/28 01:00:19;;;;;;;6.57;4.80;;;5.60;93.00;;;;;;2048154;29;20030;-81
2020/12/28 01:01:20;;;;;;;6.30;4.65;;;5.60;93.00;;;;;;2040336;29;20095;-81
2020/12/28 01:02:20;;;;;;;6.00;4.82;;;5.50;93.00;;;;;;2049287;28;20067;-81
2020/12/28 01:03:21;;;;;;;7.00;5.13;;;5.60;93.00;;;;;;2049737;28;20039;-82
2020/12/28 01:04:22;;;;;;;6.13;4.90;;;5.60;93.30;;;;;;2049732;28;20129;-82
2020/12/28 01:05:22;;;;;;;6.63;4.60;;;5.60;93.00;;;;;;2056091;28;20066;-81
2020/12/28 01:06:23;;;;;;;7.00;4.78;;;5.60;93.00;;;;;;2041332;29;20036;-81
2020/12/28 01:07:23;;;;;;;7.10;5.32;;;5.60;93.00;;;;;;2041726;29;20490;-82
2020/12/28 01:08:24;;;;;;;5.60;4.45;;;5.60;93.00;;;;;;2049605;29;20501;-81
2020/12/28 01:09:25;;;;;;;6.35;4.75;;;5.60;93.00;;;;;;2047802;29;20038;-80
2020/12/28 01:10:26;;;;;;;5.93;4.70;;;5.60;93.00;;;;;;2045642;29;20027;-82
2020/12/28 01:11:27;;;;;;;6.43;4.90;;;5.60;93.00;;;;;;2041498;29;20075;-82
2020/12/28 01:12:27;;;;;;;6.60;5.22;;;5.60;93.00;;;;;;2053373;28;20022;-83
2020/12/28 01:13:28;;;;;;;6.13;4.50;;;5.60;93.00;;;;;;2049148;28;20046;-82
2020/12/28 01:14:32;;;;;;;6.13;4.65;;;5.60;93.00;;;;;;2040252;29;20086;-83
2020/12/28 01:15:33;;;;;;;6.10;4.93;;;5.60;93.00;;;;;;2048769;28;20030;-82
2020/12/28 01:16:34;;;;;;;6.30;4.82;;;5.60;93.00;;;;;;2048174;28;20126;-82
2020/12/28 01:17:35;;;;;;;6.53;4.97;;;5.60;93.00;;;;;;2046346;29;20074;-82
2020/12/28 01:18:35;;;;;;;5.90;4.55;;;5.60;93.00;;;;;;2049797;28;20470;-83
2020/12/28 01:19:36;;;;;;;6.05;4.70;;;5.60;93.00;;;;;;2040849;29;20028;-82
2020/12/28 01:20:40;;;;;;;5.85;4.60;;;5.60;93.00;;;;;;2059297;28;20114;-82
2020/12/28 01:21:41;;;;;;;6.63;4.93;;;5.60;93.00;;;;;;2057249;28;20400;-83
2020/12/28 01:22:41;;;;;;;6.68;5.25;;;5.60;93.00;;;;;;2047979;28;20027;-81
2020/12/28 01:23:42;;;;;;;8.02;5.60;;;5.60;93.00;;;;;;2049625;29;20119;-83
2020/12/28 01:24:45;;;;;;;6.32;4.93;;;5.60;93.00;;;;;;2049128;28;20111;-81
2020/12/28 01:25:46;;;;;;;6.78;5.05;;;5.60;93.00;;;;;;2056652;28;20034;-81
2020/12/28 01:26:46;;;;;;;6.38;5.05;;;5.60;93.00;;;;;;2049594;28;20023;-82
2020/12/28 01:27:47;;;;;;;6.55;5.40;;;5.60;93.00;;;;;;2049687;28;20101;-82
2020/12/28 01:28:48;;;;;;;5.88;4.60;;;5.60;93.00;;;;;;2040335;29;20039;-81
2020/12/28 01:29:52;;;;;;;6.50;4.90;;;5.60;93.00;;;;;;2042907;29;20450;-82
2020/12/28 01:30:52;;;;;;;6.97;5.00;;;5.60;93.00;;;;;;2056018;28;20054;-82
2020/12/28 01:31:53;;;;;;;6.38;5.07;;;5.60;93.00;;;;;;2057595;28;20050;-82
2020/12/28 01:32:54;;;;;;;6.40;5.07;;;5.60;93.00;;;;;;2048186;28;20023;-83
2020/12/28 01:33:54;;;;;;;6.65;5.20;;;5.60;93.00;;;;;;2040203;29;20489;-81
2020/12/28 01:34:55;;;;;;;6.20;4.95;;;5.60;93.00;;;;;;2049608;28;20102;-82
2020/12/28 01:35:55;;;;;;;5.95;4.63;;;5.60;93.00;;;;;;2057539;28;20041;-83
2020/12/28 01:36:56;;;;;;;5.50;4.47;;;5.60;93.00;;;;;;2043883;28;20036;-83
2020/12/28 01:37:57;;;;;;;5.93;4.50;;;5.60;93.00;;;;;;2041687;29;20070;-81
2020/12/28 01:38:57;;;;;;;6.25;4.85;;;5.60;93.00;;;;;;2033772;29;20028;-81
2020/12/28 01:39:58;;;;;;;5.97;4.45;;;5.60;93.00;;;;;;2041717;29;20028;-82
2020/12/28 01:40:59;;;;;;;5.93;4.63;;;5.60;93.00;;;;;;2039369;29;20063;-82
2020/12/28 01:42:00;;;;;;;6.22;4.55;;;5.60;93.00;;;;;;2042744;28;20028;-84
2020/12/28 01:43:00;;;;;;;7.30;4.80;;;5.60;93.00;;;;;;2053633;28;20744;-81
2020/12/28 01:44:01;;;;;;;5.85;4.63;;;5.60;93.00;;;;;;2056523;28;20484;-81
2020/12/28 01:45:03;;;;;;;5.93;4.63;;;5.60;93.00;;;;;;2052907;28;20030;-83
2020/12/28 01:46:06;;;;;;;5.55;4.45;;;5.60;93.00;;;;;;2053143;28;20022;-81
2020/12/28 01:47:07;;;;;;;5.75;4.22;;;5.60;93.00;;;;;;2053430;28;20034;-83
2020/12/28 01:48:08;;;;;;;6.10;4.50;;;5.60;93.00;;;;;;2057869;28;20035;-82
2020/12/28 01:49:09;;;;;;;6.53;4.75;;;5.50;92.90;;;;;;2051708;28;20375;-83
2020/12/28 01:50:09;;;;;;;5.63;4.15;;;5.50;92.90;;;;;;2041555;29;20052;-83
2020/12/28 01:51:10;;;;;;;5.75;4.43;;;5.50;92.90;;;;;;2049463;28;20035;-82
2020/12/28 01:52:12;;;;;;;5.47;4.03;;;5.50;93.00;;;;;;2047616;28;20405;-82
2020/12/28 01:53:14;;;;;;;5.90;4.28;;;5.50;93.00;;;;;;2047989;28;20596;-81
2020/12/28 01:54:15;;;;;;;5.40;4.22;;;5.50;92.90;;;;;;2054552;28;20147;-81
2020/12/28 01:55:16;;;;;;;5.40;4.43;;;5.50;92.90;;;;;;2053024;28;20091;-83
2020/12/28 01:56:17;;;;;;;6.30;4.15;;;5.50;93.00;;;;;;2043908;29;20043;-83
2020/12/28 01:57:21;;;;;;;5.45;4.18;;;5.50;93.00;;;;;;2041562;28;20099;-82
2020/12/28 01:58:21;;;;;;;5.22;4.13;;;5.50;93.00;;;;;;2056004;28;20034;-82
2020/12/28 01:59:25;;;;;;;5.05;3.83;;;5.50;92.90;;;;;;2046949;28;20406;-82
2020/12/28 02:00:26;;;;;;;4.93;3.90;;;5.50;93.00;;;;;;2043948;29;20023;-82
2020/12/28 02:01:34;;;;;;;4.63;3.60;;;5.50;93.00;;;;;;2048953;28;20023;-83
2020/12/28 02:02:36;;;;;;;5.45;3.90;;;5.50;93.00;;;;;;2053716;28;20023;-82
2020/12/28 02:03:37;;;;;;;5.07;3.75;;;5.50;93.00;;;;;;2056741;28;20035;-82
2020/12/28 02:04:38;;;;;;;4.93;3.70;;;5.50;92.90;;;;;;2048866;28;20054;-82
2020/12/28 02:05:39;;;;;;;5.13;3.70;;;5.50;92.90;;;;;;2049333;28;20114;-82
2020/12/28 02:06:40;;;;;;;4.75;3.50;;;5.50;92.90;;;;;;2049728;28;20110;-83
2020/12/28 02:07:41;;;;;;;4.00;3.20;;;5.40;92.90;;;;;;2049320;28;20537;-82
2020/12/28 02:08:42;;;;;;;4.53;3.38;;;5.50;93.00;;;;;;2034150;29;20035;-83
2020/12/28 02:09:46;;;;;;;4.90;3.28;;;5.50;93.00;;;;;;2033977;29;20395;-81
2020/12/28 02:10:56;;;;;;;3.95;3.22;;;5.50;93.00;;;;;;2035483;29;20149;-82
2020/12/28 02:11:57;;;;;;;4.22;3.35;;;5.50;93.00;;;;;;2058438;28;20031;-83
2020/12/28 02:13:00;;;;;;;5.35;3.40;;;5.50;93.00;;;;;;2062345;28;20056;-83
2020/12/28 02:14:01;;;;;;;4.82;3.15;;;5.50;93.00;;;;;;2057067;28;20038;-83
2020/12/28 02:15:06;;;;;;;3.80;2.80;;;5.50;93.00;;;;;;2048622;29;20500;-83
2020/12/28 02:16:06;;;;;;;4.50;3.00;;;5.50;93.00;;;;;;2048693;28;20118;-82
2020/12/28 02:17:07;;;;;;;4.53;3.08;;;5.50;93.00;;;;;;2057298;28;20042;-83
2020/12/28 02:18:08;;;;;;;4.35;2.88;;;5.50;93.00;;;;;;2050134;28;20506;-83
2020/12/28 02:19:09;;;;;;;4.50;2.95;;;5.50;93.00;;;;;;2050101;28;20112;-83
2020/12/28 02:20:10;;;;;;;4.60;3.05;;;5.50;93.00;;;;;;2049970;28;20074;-82
2020/12/28 02:21:11;;;;;;;3.90;2.80;;;5.50;93.00;;;;;;2057579;28;20552;-82
2020/12/28 02:22:11;;;;;;;4.20;3.10;;;5.50;93.00;;;;;;2050007;28;20062;-81
2020/12/28 02:23:12;;;;;;;3.60;2.67;;;5.50;93.00;;;;;;2035478;29;20096;-81
2020/12/28 02:24:16;;;;;;;4.60;2.90;;;5.40;92.90;;;;;;2048974;28;20568;-82
2020/12/28 02:25:16;;;;;;;4.60;3.10;;;5.50;93.00;;;;;;2048454;29;20011;-82
2020/12/28 02:26:17;;;;;;;4.18;2.85;;;5.50;93.00;;;;;;2053171;28;20024;-82
2020/12/28 02:27:18;;;;;;;4.93;2.90;;;5.50;93.00;;;;;;2058602;28;20053;-82
2020/12/28 02:28:18;;;;;;;3.92;2.75;;;5.50;93.00;;;;;;2046732;28;20019;-82
2020/12/28 02:29:19;;;;;;;4.22;3.10;;;5.40;93.00;;;;;;2034020;29;20053;-81
2020/12/28 02:30:19;;;;;;;4.15;2.88;;;5.50;93.00;;;;;;2026212;29;20024;-82
2020/12/28 02:31:20;;;;;;;3.30;2.50;;;5.50;93.00;;;;;;2038665;29;20087;-82
2020/12/28 02:32:21;;;;;;;3.35;2.47;;;5.50;93.00;;;;;;2053988;28;20452;-82
2020/12/28 02:33:21;;;;;;;4.47;3.03;;;5.40;93.00;;;;;;2052866;28;20030;-82
2020/12/28 02:34:22;;;;;;;3.95;2.72;;;5.40;92.90;;;;;;2065474;28;20031;-82
2020/12/28 02:35:22;;;;;;;3.45;2.63;;;5.50;93.00;;;;;;2049093;29;20070;-81
2020/12/28 02:36:23;;;;;;;2.83;2.30;;;5.40;93.10;;;;;;2048925;28;20011;-81
2020/12/28 02:37:24;;;;;;;3.10;2.20;;;5.40;93.00;;;;;;2050777;28;20023;-83
2020/12/28 02:38:24;;;;;;;3.72;2.47;;;5.40;93.00;;;;;;2058851;28;20030;-81
2020/12/28 02:39:25;;;;;;;3.25;2.25;;;5.40;93.00;;;;;;2045992;29;20522;-82
2020/12/28 02:40:25;;;;;;;3.42;2.42;;;5.50;93.00;;;;;;2051482;28;20027;-82
2020/12/28 02:41:26;;;;;;;3.50;2.70;;;5.40;93.00;;;;;;2061878;28;20500;-82
2020/12/28 02:42:27;;;;;;;4.10;2.50;;;5.50;93.00;;;;;;2043103;29;20538;-81
2020/12/28 02:43:27;;;;;;;4.30;2.70;;;5.40;92.90;;;;;;2040547;29;20043;-82
2020/12/28 02:44:28;;;;;;;4.60;2.90;;;5.40;93.00;;;;;;2046047;29;20028;-81
2020/12/28 02:45:28;;;;;;;3.88;2.78;;;5.50;93.00;;;;;;2038794;29;20588;-82
2020/12/28 02:46:29;;;;;;;4.25;2.42;;;5.40;93.00;;;;;;2033351;29;20039;-82
2020/12/28 02:47:29;;;;;;;4.43;2.83;;;5.50;93.00;;;;;;2037058;29;20042;-82
2020/12/28 02:48:30;;;;;;;4.40;2.70;;;5.40;93.00;;;;;;2030575;29;20052;-81
2020/12/28 02:49:31;;;;;;;3.88;2.72;;;5.40;93.00;;;;;;2032850;29;20036;-82
2020/12/28 02:50:32;;;;;;;3.95;2.70;;;5.40;92.90;;;;;;2049230;29;20035;-83
2020/12/28 02:51:33;;;;;;;4.32;2.70;;;5.50;93.00;;;;;;2056378;28;20033;-81
2020/12/28 02:52:34;;;;;;;4.72;2.70;;;5.40;93.20;;;;;;2041898;29;20031;-81
2020/12/28 02:53:34;;;;;;;3.90;2.80;;;5.40;92.90;;;;;;2055083;28;20031;-82
2020/12/28 02:54:35;;;;;;;3.60;2.33;;;5.50;93.00;;;;;;2055016;28;20027;-81
2020/12/28 02:55:35;;;;;;;4.03;2.53;;;5.40;92.90;;;;;;2050292;29;20051;-81
2020/12/28 02:56:36;;;;;;;3.97;2.72;;;5.40;92.90;;;;;;2063318;28;20027;-80
2020/12/28 02:57:37;;;;;;;3.83;2.80;;;5.40;92.90;;;;;;2066896;28;20042;-80
2020/12/28 02:58:38;;;;;;;3.42;2.70;;;5.40;93.00;;;;;;2059007;28;20026;-82
2020/12/28 02:59:39;;;;;;;3.63;2.70;;;5.40;93.00;;;;;;2058142;28;20039;-82
2020/12/28 03:00:39;;;;;;;3.80;2.78;;;5.40;93.00;;;;;;2044023;28;20094;-81
2020/12/28 03:01:40;;;;;;;3.65;2.70;;;5.50;93.00;;;;;;2048490;29;20066;-81
2020/12/28 03:02:41;;;;;;;4.47;2.97;;;5.40;92.90;;;;;;2041116;29;20180;-82
2020/12/28 03:03:42;;;;;;;5.03;2.97;;;5.40;92.90;;;;;;2048892;28;20035;-81
2020/12/28 03:04:42;;;;;;;4.15;3.20;;;5.40;92.90;;;;;;2049241;28;20027;-82
2020/12/28 03:05:43;;;;;;;5.60;2.90;;;5.40;92.90;;;;;;2044793;28;20035;-81
2020/12/28 03:06:44;;;;;;;4.20;3.10;;;5.40;92.90;;;;;;2048894;28;20861;-82
2020/12/28 03:07:44;;;;;;;4.38;3.08;;;5.40;92.90;;;;;;2048113;28;20090;-81
2020/12/28 03:08:45;;;;;;;5.07;3.13;;;5.40;92.90;;;;;;2054223;28;20066;-81
2020/12/28 03:09:47;;;;;;;4.35;3.08;;;5.40;92.90;;;;;;2049075;28;20032;-81
2020/12/28 03:10:48;;;;;;;4.55;3.05;;;5.40;92.90;;;;;;2056403;28;20125;-82
2020/12/28 03:11:48;;;;;;;4.68;2.83;;;5.40;92.90;;;;;;2047815;28;20031;-81
2020/12/28 03:12:49;;;;;;;4.38;2.88;;;5.40;92.90;;;;;;2040060;29;20042;-82
2020/12/28 03:13:50;;;;;;;4.30;2.83;;;5.40;92.90;;;;;;2048761;29;20027;-82
2020/12/28 03:14:50;;;;;;;4.07;2.90;;;5.40;92.80;;;;;;2051162;28;20125;-81
2020/12/28 03:15:51;;;;;;;4.50;3.05;;;5.40;92.80;;;;;;2057320;28;20125;-82
2020/12/28 03:16:52;;;;;;;4.95;3.10;;;5.40;92.80;;;;;;2055725;28;20035;-82
2020/12/28 03:17:52;;;;;;;5.25;3.15;;;5.40;92.80;;;;;;2056522;28;20031;-82
2020/12/28 03:18:53;;;;;;;6.05;3.95;;;5.40;92.80;;;;;;2056663;28;20051;-81
2020/12/28 03:19:53;;;;;;;4.85;3.33;;;5.40;92.80;;;;;;2047969;29;20027;-81
2020/12/28 03:20:55;;;;;;;4.97;3.42;;;5.40;92.80;;;;;;2040796;29;20541;-82
2020/12/28 03:21:56;;;;;;;5.05;3.60;;;5.40;92.80;;;;;;2049672;28;20292;-81
2020/12/28 03:22:57;;;;;;;4.78;3.50;;;5.40;92.80;;;;;;2055114;28;20172;-81
2020/12/28 03:23:58;;;;;;;5.32;4.00;;;5.40;93.00;;;;;;2047848;28;20039;-81
2020/12/28 03:24:58;;;;;;;6.22;4.13;;;5.30;92.80;;;;;;2040243;29;20031;-81
2020/12/28 03:25:59;;;;;;;5.90;3.63;;;5.30;92.80;;;;;;2040779;29;20346;-81
2020/12/28 03:27:02;;;;;;;6.93;4.68;;;5.30;92.80;;;;;;2054588;28;20122;-81
2020/12/28 03:28:03;;;;;;;7.53;4.38;;;5.30;92.70;;;;;;2048927;28;20087;-81
2020/12/28 03:29:03;;;;;;;8.13;4.32;;;5.30;92.70;;;;;;2048129;28;20150;-82
2020/12/28 03:30:04;;;;;;;7.20;3.97;;;5.30;92.70;;;;;;2048102;29;20502;-82
2020/12/28 03:31:05;;;;;;;6.55;4.50;;;5.30;92.70;;;;;;2042459;29;20032;-82
2020/12/28 03:32:05;;;;;;;7.30;4.78;;;5.30;92.70;;;;;;2045736;28;20531;-82
2020/12/28 03:33:06;;;;;;;6.32;4.28;;;5.30;92.70;;;;;;2040711;29;20047;-82
2020/12/28 03:34:07;;;;;;;6.50;4.32;;;5.30;92.70;;;;;;2041065;28;20023;-81
2020/12/28 03:35:07;;;;;;;6.63;4.10;;;5.30;92.70;;;;;;2056022;28;20519;-81
2020/12/28 03:36:08;;;;;;;7.57;4.82;;;5.30;93.00;;;;;;2040375;28;20123;-81
2020/12/28 03:37:09;;;;;;;6.13;4.50;;;5.30;92.70;;;;;;2048269;28;20035;-81
2020/12/28 03:38:09;;;;;;;8.10;4.90;;;5.20;92.70;;;;;;2051153;28;20483;-81
2020/12/28 03:39:11;;;;;;;7.30;4.50;;;5.30;92.70;;;;;;2055953;28;20089;-82
2020/12/28 03:40:11;;;;;;;8.35;5.03;;;5.30;92.70;;;;;;2049907;28;20390;-81
2020/12/28 03:41:13;;;;;;;7.85;4.80;;;5.20;92.60;;;;;;2049674;28;20051;-82
2020/12/28 03:42:14;;;;;;;7.45;5.10;;;5.20;92.60;;;;;;2043815;29;20055;-82
2020/12/28 03:43:15;;;;;;;7.95;5.00;;;5.20;92.90;;;;;;2032946;29;20044;-82
2020/12/28 03:44:15;;;;;;;7.95;4.32;;;5.20;92.60;;;;;;2029983;29;20078;-81
2020/12/28 03:45:16;;;;;;;6.28;4.40;;;5.20;92.50;;;;;;2048275;28;20035;-82
2020/12/28 03:46:16;;;;;;;6.40;4.10;;;5.20;92.50;;;;;;2044702;29;20122;-81
2020/12/28 03:47:17;;;;;;;6.40;4.28;;;5.20;92.50;;;;;;2034265;29;20067;-81
2020/12/28 03:48:18;;;;;;;6.50;4.20;;;5.20;92.50;;;;;;2040158;29;20027;-82
2020/12/28 03:49:18;;;;;;;5.97;3.78;;;5.20;92.50;;;;;;2040647;29;20114;-81
2020/12/28 03:50:19;;;;;;;5.93;4.10;;;5.20;92.50;;;;;;2032493;29;20058;-82
2020/12/28 03:51:19;;;;;;;5.95;3.70;;;5.20;92.50;;;;;;2039714;29;20024;-81
2020/12/28 03:52:20;;;;;;;6.15;3.80;;;5.20;92.50;;;;;;2038876;29;20462;-82
2020/12/28 03:53:21;;;;;;;6.10;3.90;;;5.20;92.50;;;;;;2041572;29;20028;-82
2020/12/28 03:54:21;;;;;;;5.80;3.90;;;5.20;92.50;;;;;;2045011;28;20484;-82
2020/12/28 03:55:22;;;;;;;5.15;3.55;;;5.20;92.50;;;;;;2031002;29;20031;-82
2020/12/28 03:56:23;;;;;;;5.18;3.42;;;5.20;92.50;;;;;;2040563;28;20035;-82
2020/12/28 03:57:24;;;;;;;7.13;4.50;;;5.20;92.50;;;;;;2055064;28;20066;-82
2020/12/28 03:58:27;;;;;;;5.97;4.05;;;5.20;92.50;;;;;;2048393;28;20027;-82
2020/12/28 03:59:27;;;;;;;7.30;4.47;;;5.20;92.50;;;;;;2042899;28;20482;-82
2020/12/28 04:00:28;;;;;;;7.10;3.97;;;5.20;92.50;;;;;;2036414;29;20095;-82
2020/12/28 04:01:29;;;;;;;7.63;3.97;;;5.20;92.50;;;;;;2049258;28;20031;-82
2020/12/28 04:02:30;;;;;;;6.47;4.53;;;5.20;92.50;;;;;;2056053;28;20126;-82
2020/12/28 04:03:31;;;;;;;7.25;4.28;;;5.20;92.60;;;;;;2056565;28;20461;-82
2020/12/28 04:04:32;;;;;;;10.20;4.32;;;5.10;92.50;;;;;;2055949;28;20031;-82
2020/12/28 04:05:32;;;;;;;7.18;4.90;;;5.10;92.50;;;;;;2048391;28;20408;-82
2020/12/28 04:06:33;;;;;;;5.68;3.85;;;5.10;92.50;;;;;;2056159;28;20065;-82
2020/12/28 04:07:34;;;;;;;7.57;4.75;;;5.10;92.50;;;;;;2055661;28;20031;-82
2020/12/28 04:08:34;;;;;;;8.88;5.05;;;5.10;92.40;;;;;;2054451;28;20478;-82
2020/12/28 04:09:35;;;;;;;8.60;4.70;;;5.10;92.40;;;;;;2053779;28;20122;-82
2020/12/28 04:10:35;;;;;;;6.07;4.55;;;5.10;92.40;;;;;;2048199;28;20404;-82
2020/12/28 04:11:36;;;;;;;6.50;4.25;;;5.10;92.40;;;;;;2042255;29;20034;-83
2020/12/28 04:12:37;;;;;;;7.45;4.45;;;5.10;92.40;;;;;;2043895;29;20685;-82
2020/12/28 04:13:37;;;;;;;6.95;4.60;;;5.10;92.40;;;;;;2048385;28;20486;-82
2020/12/28 04:14:39;;;;;;;7.00;4.32;;;5.10;92.40;;;;;;2052264;28;20101;-82
2020/12/28 04:15:39;;;;;;;6.47;4.28;;;5.10;92.40;;;;;;2056254;28;20061;-81
2020/12/28 04:16:40;;;;;;;6.07;4.00;;;5.10;92.40;;;;;;2055713;28;20027;-82
2020/12/28 04:17:40;;;;;;;6.28;4.03;;;5.10;92.40;;;;;;2056226;28;20058;-82
2020/12/28 04:18:41;;;;;;;6.22;3.90;;;5.10;92.40;;;;;;2048456;29;20027;-82
2020/12/28 04:19:42;;;;;;;5.32;4.13;;;5.10;92.40;;;;;;2039858;29;20103;-82
2020/12/28 04:20:43;;;;;;;6.50;3.80;;;5.10;92.40;;;;;;2040021;29;20032;-82
2020/12/28 04:21:44;;;;;;;5.65;4.00;;;5.10;92.40;;;;;;2039638;28;20038;-82
2020/12/28 04:22:49;;;;;;;5.15;3.75;;;5.10;92.40;;;;;;2054720;28;20043;-81
2020/12/28 04:23:49;;;;;;;5.82;3.95;;;5.10;92.40;;;;;;2048430;28;20417;-81
2020/12/28 04:24:50;;;;;;;6.40;4.07;;;5.10;92.40;;;;;;2048963;28;20032;-81
2020/12/28 04:25:50;;;;;;;5.50;3.65;;;5.10;92.40;;;;;;2040412;29;20064;-81
2020/12/28 04:26:51;;;;;;;6.38;3.50;;;5.10;92.40;;;;;;2048452;28;20036;-81
2020/12/28 04:27:52;;;;;;;6.57;3.78;;;5.10;92.40;;;;;;2048181;29;20038;-81
2020/12/28 04:28:52;;;;;;;7.05;3.75;;;5.10;92.40;;;;;;2048417;29;20039;-82
2020/12/28 04:29:53;;;;;;;5.45;3.88;;;5.10;92.50;;;;;;2039692;29;20529;-82
2020/12/28 04:30:53;;;;;;;5.88;4.03;;;5.10;92.50;;;;;;2032589;29;20115;-82
2020/12/28 04:31:54;;;;;;;6.25;4.63;;;5.10;92.50;;;;;;2046446;29;20040;-81
2020/12/28 04:32:55;;;;;;;6.30;4.30;;;5.10;92.50;;;;;;2047240;28;20476;-81
2020/12/28 04:33:55;;;;;;;6.20;3.55;;;5.10;92.40;;;;;;2038413;29;20447;-81
2020/12/28 04:34:56;;;;;;;5.68;3.85;;;5.10;92.40;;;;;;2031679;29;20507;-81
2020/12/28 04:35:56;;;;;;;6.97;4.15;;;5.10;92.50;;;;;;2048553;28;20035;-81
2020/12/28 04:36:57;;;;;;;5.60;3.95;;;5.10;92.50;;;;;;2049915;28;20522;-82
2020/12/28 04:37:58;;;;;;;5.75;4.00;;;5.10;92.50;;;;;;2042101;29;20046;-81
2020/12/28 04:38:58;;;;;;;6.22;3.78;;;5.10;92.40;;;;;;2034102;29;20406;-81
2020/12/28 04:39:59;;;;;;;7.50;4.20;;;5.10;92.40;;;;;;2036939;29;20122;-81
2020/12/28 04:41:00;;;;;;;5.90;3.92;;;5.10;92.70;;;;;;2057606;28;20406;-81
2020/12/28 04:42:01;;;;;;;6.18;3.88;;;5.10;92.40;;;;;;2064011;28;20034;-81
2020/12/28 04:43:02;;;;;;;5.80;3.53;;;5.10;92.40;;;;;;2063930;28;20039;-81
2020/12/28 04:44:03;;;;;;;6.25;3.78;;;5.10;92.40;;;;;;2057282;28;20034;-82
2020/12/28 04:45:04;;;;;;;5.15;3.65;;;5.10;92.40;;;;;;2057460;28;20117;-81
2020/12/28 04:46:06;;;;;;;5.45;3.80;;;5.10;92.40;;;;;;2057672;28;20362;-81
2020/12/28 04:47:07;;;;;;;5.97;4.00;;;5.10;92.40;;;;;;2057415;28;20030;-81
2020/12/28 04:48:11;;;;;;;5.32;3.80;;;5.10;92.40;;;;;;2058097;28;20058;-81
2020/12/28 04:49:13;;;;;;;5.43;3.70;;;5.10;92.50;;;;;;2057321;28;20107;-81
2020/12/28 04:50:14;;;;;;;5.82;3.83;;;5.10;92.50;;;;;;2053495;28;20028;-81
2020/12/28 04:51:16;;;;;;;5.70;3.80;;;5.10;92.40;;;;;;2052917;28;20023;-81
2020/12/28 04:52:17;;;;;;;5.20;3.70;;;5.00;92.40;;;;;;2056266;28;20070;-81
2020/12/28 04:53:19;;;;;;;6.93;3.83;;;5.00;92.40;;;;;;2056956;28;20027;-81
2020/12/28 04:54:19;;;;;;;5.68;3.67;;;5.10;92.50;;;;;;2057445;28;20033;-81
2020/12/28 04:55:20;;;;;;;5.68;3.92;;;5.00;92.40;;;;;;2049803;28;20034;-82
2020/12/28 04:56:21;;;;;;;7.00;3.70;;;5.00;92.50;;;;;;2054627;28;20034;-81
2020/12/28 04:57:22;;;;;;;4.78;3.38;;;5.00;92.50;;;;;;2056864;28;20148;-79
2020/12/28 04:58:24;;;;;;;5.32;3.40;;;5.00;92.50;;;;;;2057712;28;20147;-80
2020/12/28 04:59:24;;;;;;;5.35;3.40;;;4.90;92.50;;;;;;2056947;28;20047;-79
2020/12/28 05:00:25;;;;;;;6.07;3.72;;;4.90;92.80;;;;;;2047866;28;20406;-80
2020/12/28 05:01:26;;;;;;;4.28;3.08;;;4.90;92.60;;;;;;2049377;28;20118;-82
2020/12/28 05:02:27;;;;;;;6.22;3.42;;;4.90;92.60;;;;;;2041692;28;20071;-82
2020/12/28 05:03:28;;;;;;;4.82;3.08;;;5.00;92.60;;;;;;2041845;29;20035;-81
2020/12/28 05:04:28;;;;;;;5.28;3.45;;;4.90;92.60;;;;;;2048650;28;20034;-81
2020/12/28 05:05:29;;;;;;;4.75;3.30;;;5.00;92.60;;;;;;2049629;28;20058;-82
2020/12/28 05:06:30;;;;;;;4.93;2.88;;;5.00;92.60;;;;;;2042680;29;20149;-81
2020/12/28 05:07:32;;;;;;;5.30;2.95;;;5.00;92.60;;;;;;2040382;29;20118;-81
2020/12/28 05:08:32;;;;;;;5.20;3.20;;;5.00;92.60;;;;;;2041398;28;20127;-81
2020/12/28 05:09:34;;;;;;;4.07;3.30;;;5.00;92.60;;;;;;2057121;28;20034;-81
2020/12/28 05:10:35;;;;;;;5.63;2.92;;;5.00;92.60;;;;;;2052793;28;20027;-81
2020/12/28 05:11:40;;;;;;;4.97;3.15;;;5.00;92.80;;;;;;2057235;28;20101;-82
2020/12/28 05:12:40;;;;;;;5.22;3.15;;;5.00;92.80;;;;;;2056700;28;20374;-81
2020/12/28 05:13:50;;;;;;;4.72;3.10;;;4.90;92.50;;;;;;2050320;28;20141;-81
2020/12/28 05:15:02;;;;;;;4.30;3.00;;;5.00;92.60;;;;;;2050202;28;20027;-81
2020/12/28 05:16:02;;;;;;;4.78;2.80;;;5.00;92.60;;;;;;2049451;29;20110;-81
2020/12/28 05:17:08;;;;;;;4.22;2.60;;;5.00;92.60;;;;;;2056196;28;20433;-81
2020/12/28 05:18:08;;;;;;;4.70;2.80;;;5.00;92.60;;;;;;2057861;28;20410;-81
2020/12/28 05:19:09;;;;;;;4.20;2.78;;;5.00;92.60;;;;;;2056070;28;20058;-81
2020/12/28 05:20:15;;;;;;;5.78;2.92;;;5.00;92.60;;;;;;2049610;28;20039;-81
2020/12/28 05:21:25;;;;;;;4.88;2.83;;;5.00;92.60;;;;;;2057252;28;20054;-81
2020/12/28 05:22:27;;;;;;;4.22;2.47;;;5.00;92.70;;;;;;2057621;28;20072;-81
2020/12/28 05:23:28;;;;;;;3.60;2.70;;;5.00;92.60;;;;;;2057069;28;20034;-81